Time;durP1;ratioP1;P1;durP2;ratioP2;P2;SDS_P1;SDS_P2;PMS_P1;PMS_P2;Temp;Humidity;BMP_temperature;BMP_pressure;BME280_temperature;BME280_humidity;BME280_pressure;Samples;Min_cycle;Max_cycle;Signal;HPM_P1;HPM_P2
2023/09/01 00:01:36;;;;;;;2.00;1.50;;;14.80;99.90;;;;;;6269944;22;20018;-72
2023/09/01 00:04:22;;;;;;;2.75;1.50;;;14.80;99.90;;;;;;6269983;22;20012;-72
2023/09/01 00:07:08;;;;;;;3.30;1.75;;;14.80;99.90;;;;;;6271923;22;20329;-72
2023/09/01 00:09:54;;;;;;;5.05;1.70;;;14.80;99.90;;;;;;6272625;22;20058;-73
2023/09/01 00:12:40;;;;;;;1.95;1.50;;;14.70;99.90;;;;;;6269450;22;20506;-72
2023/09/01 00:15:26;;;;;;;2.88;1.73;;;14.70;99.90;;;;;;6269220;22;20015;-72
2023/09/01 00:18:12;;;;;;;3.20;1.52;;;14.70;99.90;;;;;;6272061;22;20022;-73
2023/09/01 00:20:59;;;;;;;3.10;1.80;;;14.70;99.90;;;;;;6269415;22;20079;-74
2023/09/01 00:23:45;;;;;;;3.47;1.45;;;14.70;99.90;;;;;;6271756;22;20053;-74
2023/09/01 00:26:31;;;;;;;2.25;1.40;;;14.70;99.90;;;;;;6272077;22;20011;-73
2023/09/01 00:29:17;;;;;;;2.00;1.40;;;14.60;99.90;;;;;;6271447;22;20012;-73
2023/09/01 00:32:03;;;;;;;2.90;1.70;;;14.60;99.90;;;;;;6271519;22;20416;-74
2023/09/01 00:34:56;;;;;;;3.65;1.65;;;14.60;99.90;;;;;;6271865;22;20023;-74
2023/09/01 00:37:42;;;;;;;2.85;1.50;;;14.60;99.90;;;;;;6271271;22;20016;-73
2023/09/01 00:40:28;;;;;;;2.95;1.98;;;14.60;99.90;;;;;;6271878;22;20022;-73
2023/09/01 00:43:15;;;;;;;3.33;1.35;;;14.60;99.90;;;;;;6268702;22;20015;-73
2023/09/01 00:46:02;;;;;;;3.42;1.83;;;14.60;99.90;;;;;;6269428;22;20041;-73
2023/09/01 00:48:48;;;;;;;3.22;1.70;;;14.60;99.90;;;;;;6271203;22;20022;-73
2023/09/01 00:51:34;;;;;;;2.00;1.60;;;14.60;99.90;;;;;;6271460;22;20007;-73
2023/09/01 00:54:20;;;;;;;3.45;1.70;;;14.60;99.90;;;;;;6271687;22;20012;-73
2023/09/01 00:57:06;;;;;;;2.03;1.42;;;14.50;99.90;;;;;;6269612;22;20383;-74
2023/09/01 00:59:52;;;;;;;2.38;1.40;;;14.60;99.90;;;;;;6271676;22;20072;-74
2023/09/01 01:02:38;;;;;;;2.17;1.30;;;14.50;99.90;;;;;;6269896;22;20007;-73
2023/09/01 01:05:33;;;;;;;2.60;1.33;;;14.50;99.90;;;;;;6271603;22;20353;-74
2023/09/01 01:08:50;;;;;;;3.22;1.70;;;14.50;99.90;;;;;;6270506;22;20007;-74
2023/09/01 01:11:58;;;;;;;2.67;1.80;;;14.50;99.90;;;;;;6270708;22;20052;-74
2023/09/01 01:14:47;;;;;;;2.65;1.60;;;14.50;99.90;;;;;;6270554;22;20031;-74
2023/09/01 01:17:33;;;;;;;1.98;1.30;;;14.40;99.90;;;;;;6270051;22;20019;-74
2023/09/01 01:20:30;;;;;;;11.85;2.33;;;14.40;99.90;;;;;;6272581;22;20122;-74
2023/09/01 01:23:17;;;;;;;2.72;1.80;;;14.40;99.90;;;;;;6270818;22;20372;-74
2023/09/01 01:26:05;;;;;;;2.45;1.58;;;14.40;99.90;;;;;;6270553;22;20277;-74
2023/09/01 01:28:50;;;;;;;2.63;1.50;;;14.40;99.90;;;;;;6271851;22;20026;-74
2023/09/01 01:31:38;;;;;;;2.13;1.42;;;14.40;99.90;;;;;;6269409;22;20012;-74
2023/09/01 01:34:52;;;;;;;2.38;1.92;;;14.30;99.90;;;;;;6276423;22;20380;-74
2023/09/01 01:37:50;;;;;;;3.08;1.60;;;14.40;99.90;;;;;;6249703;22;20103;-74
2023/09/01 01:40:38;;;;;;;2.72;1.55;;;14.30;99.90;;;;;;6270206;22;20448;-73
2023/09/01 01:43:27;;;;;;;2.55;1.58;;;14.30;99.90;;;;;;6270594;22;20421;-72
2023/09/01 01:46:14;;;;;;;2.80;1.50;;;14.30;99.90;;;;;;6270493;22;20016;-71
2023/09/01 01:49:00;;;;;;;3.60;1.83;;;14.30;99.90;;;;;;6270906;22;20007;-72
2023/09/01 01:51:46;;;;;;;2.35;1.58;;;14.30;99.90;;;;;;6267227;22;20045;-72
2023/09/01 01:54:32;;;;;;;1.58;1.30;;;14.20;99.90;;;;;;6267858;22;20011;-71
2023/09/01 01:57:18;;;;;;;2.45;1.48;;;14.30;99.90;;;;;;6272099;22;20114;-72
2023/09/01 02:00:14;;;;;;;2.80;1.67;;;14.30;99.90;;;;;;6270668;22;20039;-71
2023/09/01 02:03:01;;;;;;;2.78;1.83;;;14.20;99.90;;;;;;6270359;22;20015;-72
2023/09/01 02:05:46;;;;;;;3.08;1.95;;;14.20;99.90;;;;;;6269672;22;20077;-71
2023/09/01 02:08:34;;;;;;;2.60;1.55;;;14.20;99.90;;;;;;6271921;22;20385;-72
2023/09/01 02:11:20;;;;;;;2.78;1.90;;;14.20;99.90;;;;;;6271627;22;20016;-72
2023/09/01 02:14:06;;;;;;;3.83;1.88;;;14.10;99.90;;;;;;6270141;22;20471;-72
2023/09/01 02:16:52;;;;;;;3.55;1.90;;;14.10;99.90;;;;;;6273312;22;20087;-72
2023/09/01 02:19:38;;;;;;;2.80;1.70;;;14.10;99.90;;;;;;6270833;22;20389;-72
2023/09/01 02:22:23;;;;;;;3.63;1.95;;;14.10;99.90;;;;;;6273250;22;20404;-72
2023/09/01 02:25:10;;;;;;;4.05;1.90;;;14.00;99.90;;;;;;6270916;22;20007;-72
2023/09/01 02:27:56;;;;;;;3.28;1.80;;;14.00;99.90;;;;;;6273392;22;20015;-72
2023/09/01 02:30:42;;;;;;;2.92;1.80;;;14.00;99.90;;;;;;6274244;22;20073;-73
2023/09/01 02:33:28;;;;;;;3.40;2.38;;;14.00;99.90;;;;;;6271679;22;20118;-74
2023/09/01 02:36:30;;;;;;;4.07;1.98;;;14.00;99.90;;;;;;6272801;22;20342;-74
2023/09/01 02:39:19;;;;;;;2.78;1.88;;;14.00;99.90;;;;;;6272521;22;20110;-71
2023/09/01 02:42:05;;;;;;;5.07;2.10;;;14.00;99.90;;;;;;6273931;22;20319;-74
2023/09/01 02:44:52;;;;;;;2.95;1.90;;;14.00;99.90;;;;;;6271948;22;20099;-75
2023/09/01 02:47:39;;;;;;;3.28;1.90;;;14.00;99.90;;;;;;6248874;22;20244;-75
2023/09/01 02:50:25;;;;;;;2.85;1.80;;;13.90;99.90;;;;;;6271341;22;20148;-72
2023/09/01 02:53:11;;;;;;;3.30;1.77;;;13.90;99.90;;;;;;6272794;22;20346;-74
2023/09/01 02:55:57;;;;;;;5.43;2.15;;;13.90;99.90;;;;;;6272170;22;20338;-74
2023/09/01 02:58:43;;;;;;;2.35;1.75;;;13.90;99.90;;;;;;6270083;22;20024;-74
2023/09/01 03:01:29;;;;;;;5.35;1.92;;;13.90;99.90;;;;;;6271021;22;20477;-74
2023/09/01 03:04:15;;;;;;;5.15;2.30;;;13.90;99.90;;;;;;6270530;22;20432;-74
2023/09/01 03:07:01;;;;;;;3.83;2.50;;;13.90;99.90;;;;;;6269677;22;20453;-74
2023/09/01 03:09:47;;;;;;;4.90;2.00;;;13.90;99.90;;;;;;6269892;22;20437;-74
2023/09/01 03:12:35;;;;;;;4.15;2.25;;;13.90;99.90;;;;;;6272366;22;20445;-74
2023/09/01 03:15:22;;;;;;;4.28;2.10;;;13.90;99.90;;;;;;6271015;22;20019;-74
2023/09/01 03:18:10;;;;;;;3.03;2.05;;;13.90;99.90;;;;;;6273016;22;20024;-74
2023/09/01 03:21:09;;;;;;;3.50;2.25;;;13.90;99.90;;;;;;6271639;22;20043;-74
2023/09/01 03:23:55;;;;;;;4.40;2.28;;;13.80;99.90;;;;;;6271735;22;20007;-74
2023/09/01 03:26:41;;;;;;;2.72;1.85;;;13.80;99.90;;;;;;6272243;22;20113;-74
2023/09/01 03:29:27;;;;;;;3.92;2.35;;;13.80;99.90;;;;;;6269616;22;20373;-74
2023/09/01 03:32:13;;;;;;;3.40;2.35;;;13.80;99.90;;;;;;6269623;22;20018;-74
2023/09/01 03:34:59;;;;;;;5.07;2.55;;;13.80;99.90;;;;;;6269643;22;20406;-74
2023/09/01 03:37:46;;;;;;;5.95;2.30;;;13.90;99.90;;;;;;6272899;22;20073;-73
2023/09/01 03:40:35;;;;;;;5.13;2.30;;;13.80;99.90;;;;;;6273093;22;20004;-74
2023/09/01 03:43:20;;;;;;;3.13;2.15;;;13.70;99.90;;;;;;6271103;22;20018;-74
2023/09/01 03:46:06;;;;;;;3.88;2.45;;;13.80;99.90;;;;;;6270219;22;20008;-74
2023/09/01 03:48:52;;;;;;;3.40;2.50;;;13.70;99.90;;;;;;6269594;22;20077;-74
2023/09/01 03:51:38;;;;;;;3.97;2.63;;;13.70;99.90;;;;;;6269519;22;20018;-73
2023/09/01 03:54:24;;;;;;;6.35;3.10;;;13.70;99.90;;;;;;6269513;22;20445;-73
2023/09/01 03:57:10;;;;;;;2.90;2.20;;;13.70;99.90;;;;;;6272300;22;20008;-73
2023/09/01 03:59:56;;;;;;;4.35;2.50;;;13.60;99.90;;;;;;6272698;22;20087;-73
2023/09/01 04:02:42;;;;;;;4.38;3.05;;;13.70;99.90;;;;;;6269346;22;20462;-74
2023/09/01 04:05:28;;;;;;;3.17;2.35;;;13.60;99.90;;;;;;6249910;22;20510;-73
2023/09/01 04:08:14;;;;;;;4.18;2.75;;;13.60;99.90;;;;;;6271582;22;20026;-75
2023/09/01 04:11:00;;;;;;;2.78;2.35;;;13.60;99.90;;;;;;6268282;22;20357;-74
2023/09/01 04:13:46;;;;;;;3.92;2.92;;;13.60;99.90;;;;;;6271542;22;20380;-72
2023/09/01 04:16:32;;;;;;;6.13;2.40;;;13.60;99.90;;;;;;6269288;22;20087;-73
2023/09/01 04:19:18;;;;;;;3.35;2.50;;;13.60;99.90;;;;;;6249622;22;20110;-73
2023/09/01 04:22:04;;;;;;;3.35;2.50;;;13.60;99.90;;;;;;6272493;22;20029;-72
2023/09/01 04:24:51;;;;;;;4.45;3.08;;;13.60;99.90;;;;;;6269844;22;20008;-72
2023/09/01 04:27:37;;;;;;;6.20;3.45;;;13.60;99.90;;;;;;6269174;22;20008;-72
2023/09/01 04:30:23;;;;;;;3.72;2.60;;;13.70;99.90;;;;;;6269229;22;20020;-72
2023/09/01 04:33:09;;;;;;;4.65;3.33;;;13.60;99.90;;;;;;6268925;22;20012;-72
2023/09/01 04:36:03;;;;;;;4.03;3.17;;;13.70;99.90;;;;;;6272163;22;20460;-72
2023/09/01 04:38:49;;;;;;;4.65;2.78;;;13.60;99.90;;;;;;6276615;22;20453;-72
2023/09/01 04:41:35;;;;;;;4.45;2.97;;;13.60;99.90;;;;;;6275083;22;20054;-72
2023/09/01 04:44:21;;;;;;;7.13;3.20;;;13.60;99.90;;;;;;6272563;22;20012;-72
2023/09/01 04:47:07;;;;;;;3.85;2.58;;;13.60;99.90;;;;;;6250740;22;20015;-72
2023/09/01 04:49:53;;;;;;;4.05;2.58;;;13.60;99.90;;;;;;6272298;22;20045;-73
2023/09/01 04:52:39;;;;;;;4.22;3.20;;;13.60;99.90;;;;;;6269800;22;20076;-73
2023/09/01 04:55:25;;;;;;;6.50;3.00;;;13.60;99.90;;;;;;6249265;22;20012;-73
2023/09/01 04:58:11;;;;;;;4.97;2.90;;;13.60;99.90;;;;;;6269142;22;20015;-72
2023/09/01 05:00:57;;;;;;;5.20;3.28;;;13.60;99.90;;;;;;6268897;22;20319;-71
2023/09/01 05:03:43;;;;;;;3.20;2.40;;;13.60;99.90;;;;;;6269386;22;20099;-72
2023/09/01 05:06:29;;;;;;;4.85;2.65;;;13.70;99.90;;;;;;6268334;22;20007;-72
2023/09/01 05:09:15;;;;;;;4.05;2.50;;;13.70;99.90;;;;;;6271545;22;20019;-72
2023/09/01 05:12:01;;;;;;;4.05;2.67;;;13.70;99.90;;;;;;6270178;22;20696;-72
2023/09/01 05:14:47;;;;;;;5.25;3.35;;;13.70;99.90;;;;;;6268890;22;20069;-72
2023/09/01 05:17:33;;;;;;;3.67;2.53;;;13.70;99.90;;;;;;6249723;22;20059;-72
2023/09/01 05:20:19;;;;;;;4.55;2.78;;;13.70;99.90;;;;;;6271752;22;20532;-72
2023/09/01 05:23:05;;;;;;;3.88;2.67;;;13.80;99.90;;;;;;6271239;22;20058;-72
2023/09/01 05:25:52;;;;;;;5.47;2.50;;;13.80;99.90;;;;;;6269255;22;20007;-72
2023/09/01 05:28:38;;;;;;;5.50;2.70;;;13.80;99.90;;;;;;6270859;22;20015;-72
2023/09/01 05:31:27;;;;;;;3.83;2.90;;;13.80;99.90;;;;;;6271647;22;20011;-73
2023/09/01 05:34:13;;;;;;;4.75;2.97;;;13.90;99.90;;;;;;6270811;22;20007;-71
2023/09/01 05:36:59;;;;;;;4.30;2.60;;;13.90;99.90;;;;;;6268971;22;20012;-71
2023/09/01 05:39:44;;;;;;;4.30;2.95;;;13.90;99.90;;;;;;6269288;22;20102;-71
2023/09/01 05:42:30;;;;;;;3.85;2.60;;;13.90;99.90;;;;;;6271795;22;20074;-71
2023/09/01 05:45:17;;;;;;;4.72;2.45;;;14.00;99.90;;;;;;6272738;22;20057;-71
2023/09/01 05:48:03;;;;;;;3.55;2.40;;;14.00;99.90;;;;;;6273769;22;20073;-70
2023/09/01 05:50:50;;;;;;;3.95;2.65;;;14.00;99.90;;;;;;6272809;22;20008;-71
2023/09/01 05:53:35;;;;;;;4.32;2.70;;;14.10;99.90;;;;;;6272417;22;20012;-71
2023/09/01 05:56:21;;;;;;;4.00;2.65;;;14.10;99.90;;;;;;6272305;22;20011;-71
2023/09/01 05:59:07;;;;;;;3.78;2.25;;;14.10;99.90;;;;;;6272190;22;20015;-71
2023/09/01 06:01:53;;;;;;;4.68;2.53;;;14.20;99.90;;;;;;6270802;22;20016;-71
2023/09/01 06:04:39;;;;;;;7.03;2.83;;;14.20;99.90;;;;;;6270773;22;20003;-71
2023/09/01 06:07:25;;;;;;;5.22;2.83;;;14.20;99.90;;;;;;6272875;22;20353;-73
2023/09/01 06:10:11;;;;;;;5.20;2.47;;;14.30;99.90;;;;;;6271601;22;20064;-73
2023/09/01 06:12:57;;;;;;;6.55;2.70;;;14.30;99.90;;;;;;6269389;22;20015;-73
2023/09/01 06:15:43;;;;;;;3.75;2.72;;;14.40;99.90;;;;;;6270347;22;20012;-73
2023/09/01 06:18:29;;;;;;;3.33;2.47;;;14.40;99.90;;;;;;6270003;22;20102;-73
2023/09/01 06:21:15;;;;;;;4.32;2.55;;;14.50;99.90;;;;;;6270506;22;20487;-73
2023/09/01 06:24:03;;;;;;;4.55;2.67;;;14.50;99.90;;;;;;6269919;22;20090;-72
2023/09/01 06:26:49;;;;;;;6.30;3.03;;;14.60;99.90;;;;;;6273167;22;20039;-73
2023/09/01 06:29:35;;;;;;;5.80;2.67;;;14.70;99.90;;;;;;6272152;22;20433;-73
2023/09/01 06:32:21;;;;;;;6.97;3.00;;;14.70;99.90;;;;;;6272563;22;20374;-73
2023/09/01 06:35:08;;;;;;;5.07;2.97;;;14.80;99.90;;;;;;6272232;22;20020;-74
2023/09/01 06:37:54;;;;;;;3.88;2.50;;;14.90;99.90;;;;;;6271303;22;20023;-73
2023/09/01 06:40:39;;;;;;;6.38;2.88;;;14.90;99.90;;;;;;6270010;22;20266;-79
2023/09/01 06:43:25;;;;;;;3.75;2.78;;;15.00;99.90;;;;;;6272426;22;20345;-73
2023/09/01 06:46:11;;;;;;;5.07;2.72;;;15.00;99.90;;;;;;6271363;22;20373;-71
2023/09/01 06:48:57;;;;;;;4.50;2.70;;;15.10;99.90;;;;;;6270747;22;20624;-71
2023/09/01 06:51:43;;;;;;;4.30;3.00;;;15.10;99.90;;;;;;6271610;22;20371;-71
2023/09/01 06:54:29;;;;;;;5.68;3.33;;;15.20;99.90;;;;;;6272588;22;20014;-71
2023/09/01 06:57:15;;;;;;;6.05;2.80;;;15.20;99.90;;;;;;6249494;22;20021;-71
2023/09/01 07:00:01;;;;;;;7.10;2.78;;;15.30;99.90;;;;;;6272327;22;20390;-70
2023/09/01 07:02:47;;;;;;;5.25;2.97;;;15.30;99.90;;;;;;6269460;22;20012;-70
2023/09/01 07:05:34;;;;;;;5.03;2.78;;;15.40;99.90;;;;;;6272875;22;20035;-71
2023/09/01 07:08:19;;;;;;;5.45;2.92;;;15.40;99.90;;;;;;6273077;22;20003;-66
2023/09/01 07:11:11;;;;;;;6.78;3.05;;;15.50;99.90;;;;;;6271524;22;20015;-70
2023/09/01 07:13:56;;;;;;;4.53;3.08;;;15.50;99.90;;;;;;6271716;22;20040;-70
2023/09/01 07:16:42;;;;;;;7.05;3.50;;;15.60;99.90;;;;;;6271720;22;20007;-70
2023/09/01 07:19:28;;;;;;;4.47;3.40;;;15.70;99.90;;;;;;6271259;22;20023;-70
2023/09/01 07:22:14;;;;;;;5.05;3.10;;;15.70;99.90;;;;;;6270101;22;20008;-70
2023/09/01 07:25:00;;;;;;;4.32;2.80;;;15.80;99.90;;;;;;6271741;22;20031;-67
2023/09/01 07:27:46;;;;;;;5.88;2.90;;;15.80;99.90;;;;;;6265677;22;20019;-66
2023/09/01 07:30:33;;;;;;;7.13;3.30;;;15.90;99.90;;;;;;6267782;22;20323;-67
2023/09/01 07:33:19;;;;;;;4.88;3.25;;;16.00;99.90;;;;;;6270181;22;20032;-67
2023/09/01 07:36:07;;;;;;;6.68;2.70;;;16.10;99.90;;;;;;6270968;22;20059;-68
2023/09/01 07:38:53;;;;;;;6.22;3.05;;;16.20;99.90;;;;;;6271554;22;20425;-68
2023/09/01 07:41:39;;;;;;;5.82;3.08;;;16.20;99.90;;;;;;6277235;22;20022;-68
2023/09/01 07:44:25;;;;;;;5.18;3.53;;;16.30;99.90;;;;;;6278271;22;20012;-68
2023/09/01 07:47:11;;;;;;;5.63;3.22;;;16.30;99.90;;;;;;6271973;22;20368;-69
2023/09/01 07:49:57;;;;;;;8.52;3.90;;;16.40;99.90;;;;;;6272570;22;20014;-69
2023/09/01 07:52:43;;;;;;;4.40;3.10;;;16.40;99.90;;;;;;6268219;22;20027;-71
2023/09/01 07:55:28;;;;;;;4.40;2.83;;;16.50;99.90;;;;;;6271719;22;20437;-73
2023/09/01 07:58:14;;;;;;;5.20;3.50;;;16.60;99.90;;;;;;6272096;22;20345;-72
2023/09/01 08:01:00;;;;;;;5.93;3.55;;;16.60;99.90;;;;;;6272779;22;20008;-73
2023/09/01 08:03:46;;;;;;;3.85;2.97;;;16.70;99.90;;;;;;6271398;22;20007;-72
2023/09/01 08:06:32;;;;;;;5.32;3.08;;;16.80;99.90;;;;;;6268763;22;20011;-72
2023/09/01 08:09:18;;;;;;;5.65;3.60;;;16.80;99.90;;;;;;6269935;22;20498;-73
2023/09/01 08:12:04;;;;;;;4.97;2.72;;;16.90;99.90;;;;;;6272261;22;20547;-74
2023/09/01 08:14:51;;;;;;;8.70;3.13;;;16.90;99.90;;;;;;6269208;22;20090;-73
2023/09/01 08:17:37;;;;;;;5.15;2.40;;;17.00;99.90;;;;;;6271603;22;21871;-73
2023/09/01 08:20:23;;;;;;;6.28;3.22;;;17.10;99.90;;;;;;6271972;22;20019;-73
2023/09/01 08:23:10;;;;;;;4.47;2.97;;;17.10;99.90;;;;;;6271272;22;20012;-73
2023/09/01 08:25:56;;;;;;;5.47;2.55;;;17.20;99.90;;;;;;6270798;22;20008;-72
2023/09/01 08:28:42;;;;;;;10.65;3.00;;;17.30;99.90;;;;;;6269030;22;20473;-74
2023/09/01 08:31:28;;;;;;;3.97;2.88;;;17.30;99.90;;;;;;6269244;22;20004;-74
2023/09/01 08:34:15;;;;;;;6.30;3.15;;;17.40;99.90;;;;;;6269253;22;20024;-74
2023/09/01 08:37:01;;;;;;;4.68;2.90;;;17.50;99.90;;;;;;6270661;22;20548;-74
2023/09/01 08:39:47;;;;;;;6.20;2.63;;;17.50;99.90;;;;;;6270055;22;20020;-74
2023/09/01 08:42:34;;;;;;;4.30;2.17;;;17.60;99.80;;;;;;6271630;22;20022;-75
2023/09/01 08:45:20;;;;;;;3.60;2.17;;;17.70;99.70;;;;;;6250423;22;20003;-74
2023/09/01 08:48:06;;;;;;;3.65;1.95;;;17.70;99.60;;;;;;6270003;22;20011;-74
2023/09/01 08:50:53;;;;;;;6.70;3.05;;;17.80;99.50;;;;;;6271833;22;20007;-74
2023/09/01 08:53:40;;;;;;;7.05;2.58;;;17.90;99.30;;;;;;6269801;22;20677;-76
2023/09/01 08:56:26;;;;;;;6.22;2.13;;;17.90;99.20;;;;;;6269218;22;20015;-74
2023/09/01 08:59:12;;;;;;;5.85;2.10;;;18.00;99.20;;;;;;6270017;22;20353;-78
2023/09/01 09:01:59;;;;;;;6.60;2.67;;;18.10;99.10;;;;;;6268347;22;20014;-74
2023/09/01 09:04:47;;;;;;;3.70;1.98;;;18.10;98.70;;;;;;6269792;22;20022;-74
2023/09/01 09:07:33;;;;;;;5.88;2.20;;;18.20;98.50;;;;;;6270115;22;20008;-77
2023/09/01 09:10:31;;;;;;;4.60;2.13;;;18.30;98.50;;;;;;6270305;22;20345;-73
2023/09/01 09:13:24;;;;;;;4.90;1.92;;;18.30;98.30;;;;;;6268304;22;20035;-76
2023/09/01 09:16:12;;;;;;;3.35;1.92;;;18.40;98.20;;;;;;6270618;22;20368;-73
2023/09/01 09:19:06;;;;;;;2.45;1.60;;;18.50;97.80;;;;;;6247299;22;20042;-75
2023/09/01 09:22:07;;;;;;;8.88;1.77;;;18.50;97.60;;;;;;6269238;22;20538;-74
2023/09/01 09:24:53;;;;;;;5.03;2.10;;;18.60;97.50;;;;;;6271551;22;20018;-73
2023/09/01 09:27:39;;;;;;;4.00;1.92;;;18.70;97.20;;;;;;6271543;22;20083;-74
2023/09/01 09:30:26;;;;;;;6.47;1.67;;;18.70;97.00;;;;;;6271271;22;20007;-71
2023/09/01 09:33:12;;;;;;;2.95;1.70;;;18.80;96.60;;;;;;6270306;22;20007;-74
2023/09/01 09:35:59;;;;;;;3.83;1.55;;;18.90;96.60;;;;;;6269052;22;20019;-73
2023/09/01 09:38:49;;;;;;;3.08;1.58;;;18.90;96.30;;;;;;6270550;22;20069;-77
2023/09/01 09:41:45;;;;;;;4.00;1.48;;;19.00;96.10;;;;;;6275145;22;20008;-73
2023/09/01 09:44:33;;;;;;;1.83;1.35;;;19.10;96.10;;;;;;6272346;22;20445;-82
2023/09/01 09:47:19;;;;;;;3.28;2.10;;;19.20;96.10;;;;;;6272859;22;20004;-79
2023/09/01 09:50:06;;;;;;;4.35;1.73;;;19.30;95.80;;;;;;6269292;22;20015;-75
2023/09/01 09:53:02;;;;;;;4.53;1.98;;;19.30;95.50;;;;;;6271836;22;20055;-82
2023/09/01 09:55:50;;;;;;;4.00;1.38;;;19.40;95.20;;;;;;6272895;22;20019;-80
2023/09/01 09:58:40;;;;;;;4.30;1.75;;;19.60;95.20;;;;;;6276340;22;20085;-82
2023/09/01 10:01:29;;;;;;;1.88;1.38;;;19.60;95.00;;;;;;6234155;22;20383;-80
2023/09/01 10:04:17;;;;;;;2.75;1.48;;;19.80;94.70;;;;;;6275660;22;20073;-81
2023/09/01 10:07:03;;;;;;;3.50;1.65;;;19.90;94.50;;;;;;6273022;22;20458;-82
2023/09/01 10:09:49;;;;;;;3.22;1.60;;;20.00;94.20;;;;;;6271080;22;20050;-81
2023/09/01 10:12:36;;;;;;;3.45;1.30;;;20.10;93.90;;;;;;6268568;22;20380;-83
2023/09/01 10:15:23;;;;;;;2.67;1.50;;;20.20;93.80;;;;;;6268825;22;20010;-81
2023/09/01 10:18:09;;;;;;;4.32;1.70;;;20.20;93.60;;;;;;6250166;22;20025;-79
2023/09/01 10:20:55;;;;;;;4.78;1.73;;;20.30;93.60;;;;;;6269093;22;20441;-80
2023/09/01 10:23:45;;;;;;;2.80;1.48;;;20.30;93.40;;;;;;6273532;22;20073;-80
2023/09/01 10:26:32;;;;;;;4.45;1.55;;;20.40;93.30;;;;;;6249965;22;20038;-80
2023/09/01 10:29:31;;;;;;;3.63;1.50;;;20.60;92.90;;;;;;6250825;22;20042;-80
2023/09/01 10:32:18;;;;;;;5.47;1.35;;;20.70;93.00;;;;;;6273301;22;20015;-82
2023/09/01 10:35:05;;;;;;;2.75;1.65;;;20.80;92.90;;;;;;6274621;22;20034;-79
2023/09/01 10:38:14;;;;;;;2.95;1.48;;;20.80;92.80;;;;;;6273304;22;20008;-81
2023/09/01 10:41:00;;;;;;;2.38;1.73;;;21.00;92.70;;;;;;6251683;22;20382;-81
2023/09/01 10:43:53;;;;;;;3.97;1.67;;;21.10;92.60;;;;;;6289588;22;20512;-80
2023/09/01 10:46:38;;;;;;;2.88;1.52;;;21.20;92.30;;;;;;6289005;22;20081;-80
2023/09/01 10:49:56;;;;;;;4.82;1.83;;;21.30;92.10;;;;;;6273637;22;20007;-81
2023/09/01 10:52:44;;;;;;;2.58;1.30;;;21.40;92.00;;;;;;6279568;22;20357;-81
2023/09/01 10:55:33;;;;;;;10.32;1.92;;;21.40;91.70;;;;;;6273673;22;20384;-83
2023/09/01 10:58:19;;;;;;;3.55;1.85;;;21.40;91.40;;;;;;6277037;22;20024;-84
2023/09/01 11:01:24;;;;;;;4.35;1.70;;;21.50;91.40;;;;;;6273905;22;20004;-79
2023/09/01 11:04:16;;;;;;;4.20;1.90;;;21.60;91.30;;;;;;6273585;22;20345;-79
2023/09/01 11:07:07;;;;;;;5.63;1.60;;;21.60;90.60;;;;;;6274188;22;20015;-80
2023/09/01 11:09:56;;;;;;;4.63;1.98;;;21.60;90.60;;;;;;6274490;22;20007;-78
2023/09/01 11:12:42;;;;;;;3.20;1.60;;;21.70;90.50;;;;;;6272480;22;20441;-81
2023/09/01 11:15:28;;;;;;;3.67;1.60;;;21.70;90.30;;;;;;6270166;22;20517;-81
2023/09/01 11:18:22;;;;;;;4.30;2.10;;;21.70;90.00;;;;;;6274940;22;20407;-83
2023/09/01 11:21:08;;;;;;;4.20;2.15;;;21.70;90.00;;;;;;6273962;22;20007;-81
2023/09/01 11:23:59;;;;;;;2.53;1.80;;;21.80;90.10;;;;;;6275495;22;20004;-81
2023/09/01 11:26:45;;;;;;;4.07;1.58;;;21.80;89.30;;;;;;6272910;22;20015;-82
2023/09/01 11:29:31;;;;;;;4.75;1.90;;;21.80;89.50;;;;;;6273715;22;20011;-82
2023/09/01 11:32:27;;;;;;;6.50;2.15;;;21.80;89.50;;;;;;6270120;22;20482;-80
2023/09/01 11:35:27;;;;;;;4.85;1.58;;;21.90;89.90;;;;;;6271131;22;20035;-81
2023/09/01 11:38:18;;;;;;;3.15;1.92;;;21.90;89.50;;;;;;6271363;22;20020;-79
2023/09/01 11:41:16;;;;;;;3.58;1.88;;;21.90;88.60;;;;;;6272399;22;20007;-79
2023/09/01 11:44:03;;;;;;;3.50;1.77;;;22.00;88.70;;;;;;6272096;22;20018;-81
2023/09/01 11:46:49;;;;;;;2.67;1.63;;;22.00;88.40;;;;;;6274509;22;20454;-81
2023/09/01 11:49:41;;;;;;;4.18;1.58;;;22.10;88.30;;;;;;6273053;22;20318;-79
2023/09/01 11:52:27;;;;;;;4.72;1.75;;;22.20;88.20;;;;;;6273265;22;20134;-82
2023/09/01 11:55:43;;;;;;;3.42;1.90;;;22.30;88.20;;;;;;6275413;22;20019;-81
2023/09/01 11:58:28;;;;;;;;;;;22.40;88.20;;;;;;6274027;22;20023;-81
2023/09/01 12:01:19;;;;;;;2.95;1.73;;;22.40;89.60;;;;;;6274966;22;19922;-83
2023/09/01 12:04:07;;;;;;;4.95;2.38;;;22.50;87.70;;;;;;6274547;22;20121;-81
2023/09/01 12:06:53;;;;;;;6.25;1.95;;;22.50;87.50;;;;;;6272829;22;20348;-82
2023/09/01 12:09:39;;;;;;;2.65;1.58;;;22.60;87.30;;;;;;6275026;22;20448;-81
2023/09/01 12:12:36;;;;;;;3.20;1.70;;;22.70;87.20;;;;;;6272686;22;20011;-82
2023/09/01 12:15:22;;;;;;;3.92;1.85;;;22.70;86.90;;;;;;6272882;22;20047;-80
2023/09/01 12:18:34;;;;;;;3.50;1.80;;;22.80;86.30;;;;;;6273498;22;20437;-82
2023/09/01 12:21:20;;;;;;;3.78;1.55;;;22.90;85.90;;;;;;6274924;22;20008;-82
2023/09/01 12:24:06;;;;;;;3.13;1.80;;;23.00;85.40;;;;;;6272704;22;20008;-82
2023/09/01 12:26:52;;;;;;;4.18;2.38;;;23.00;84.90;;;;;;6279680;22;20019;-82
2023/09/01 12:29:38;;;;;;;5.50;1.90;;;23.10;85.30;;;;;;6278733;22;20008;-83
2023/09/01 12:32:27;;;;;;;2.58;1.63;;;23.20;84.90;;;;;;6275442;22;20020;-82
2023/09/01 12:35:13;;;;;;;2.88;1.85;;;23.30;84.30;;;;;;6272989;22;20027;-82
2023/09/01 12:37:59;;;;;;;4.30;1.77;;;23.40;84.20;;;;;;6272252;22;20391;-81
2023/09/01 12:40:45;;;;;;;3.63;1.98;;;23.40;84.30;;;;;;6269446;22;20007;-83
2023/09/01 12:43:31;;;;;;;4.40;2.10;;;23.50;84.00;;;;;;6270670;22;20011;-79
2023/09/01 12:46:17;;;;;;;2.63;1.65;;;23.50;83.30;;;;;;6271703;22;20003;-83
2023/09/01 12:49:03;;;;;;;2.70;1.75;;;23.50;83.10;;;;;;6269421;22;20026;-74
2023/09/01 12:51:49;;;;;;;2.63;1.70;;;23.40;82.10;;;;;;6271522;22;20042;-73
2023/09/01 12:54:35;;;;;;;7.97;2.45;;;23.40;82.10;;;;;;6272690;22;20050;-78
2023/09/01 12:57:21;;;;;;;3.70;2.03;;;23.40;82.10;;;;;;6269538;22;20000;-82
2023/09/01 13:00:07;;;;;;;3.33;1.75;;;23.40;81.70;;;;;;6250884;22;20020;-77
2023/09/01 13:02:53;;;;;;;3.92;2.00;;;23.40;81.80;;;;;;6271063;22;20019;-78
2023/09/01 13:05:39;;;;;;;4.03;2.15;;;23.50;81.60;;;;;;6271637;22;20007;-77
2023/09/01 13:08:26;;;;;;;4.68;2.20;;;23.50;81.50;;;;;;6271744;22;20475;-77
2023/09/01 13:11:14;;;;;;;3.33;1.60;;;23.50;81.20;;;;;;6272401;22;20496;-76
2023/09/01 13:14:00;;;;;;;3.33;1.80;;;23.50;80.70;;;;;;6273213;22;20467;-75
2023/09/01 13:16:46;;;;;;;2.80;1.90;;;23.50;80.20;;;;;;6269199;22;20376;-76
2023/09/01 13:19:32;;;;;;;2.97;1.83;;;23.50;79.70;;;;;;6271183;22;20319;-77
2023/09/01 13:22:18;;;;;;;6.55;2.00;;;23.50;80.00;;;;;;6271560;22;20338;-74
2023/09/01 13:25:04;;;;;;;4.05;2.20;;;23.60;79.80;;;;;;6271719;22;20019;-75
2023/09/01 13:27:50;;;;;;;2.83;2.05;;;23.60;79.80;;;;;;6270669;22;20038;-76
2023/09/01 13:30:37;;;;;;;2.70;1.73;;;23.60;79.70;;;;;;6272090;22;20019;-77
2023/09/01 13:33:22;;;;;;;3.97;2.13;;;23.50;80.00;;;;;;6272665;22;20022;-77
2023/09/01 13:36:09;;;;;;;4.55;2.30;;;23.60;80.00;;;;;;6271565;22;20396;-77
2023/09/01 13:38:55;;;;;;;3.47;1.70;;;23.60;80.40;;;;;;6271152;22;20649;-77
2023/09/01 13:41:41;;;;;;;5.65;2.13;;;23.60;80.10;;;;;;6273475;22;20081;-77
2023/09/01 13:44:29;;;;;;;3.67;2.17;;;23.70;80.70;;;;;;6272261;22;20030;-76
2023/09/01 13:47:15;;;;;;;4.50;2.35;;;23.70;80.00;;;;;;6272682;22;20460;-78
2023/09/01 13:50:01;;;;;;;3.50;1.95;;;23.70;79.40;;;;;;6269110;22;20555;-76
2023/09/01 13:52:47;;;;;;;3.30;2.10;;;23.60;79.10;;;;;;6273170;22;20023;-76
2023/09/01 13:55:33;;;;;;;8.88;2.42;;;23.60;79.40;;;;;;6274979;22;20374;-76
2023/09/01 13:58:18;;;;;;;2.97;1.77;;;23.60;79.10;;;;;;6276031;22;20027;-75
2023/09/01 14:01:05;;;;;;;2.53;1.63;;;23.50;78.90;;;;;;6273250;22;20410;-75
2023/09/01 14:03:50;;;;;;;4.80;2.13;;;23.50;78.90;;;;;;6250706;22;20094;-77
2023/09/01 14:06:36;;;;;;;5.70;2.35;;;23.40;79.10;;;;;;6251568;22;20094;-77
2023/09/01 14:09:22;;;;;;;6.00;2.00;;;23.40;79.10;;;;;;6274082;22;20018;-77
2023/09/01 14:12:08;;;;;;;5.15;2.30;;;23.40;79.20;;;;;;6273598;22;20011;-75
2023/09/01 14:14:54;;;;;;;5.43;2.50;;;23.30;78.90;;;;;;6272042;22;20026;-78
2023/09/01 14:17:41;;;;;;;4.38;2.33;;;23.30;78.90;;;;;;6250181;22;20007;-78
2023/09/01 14:20:27;;;;;;;3.38;1.90;;;23.30;78.70;;;;;;6271548;22;20431;-77
2023/09/01 14:23:13;;;;;;;5.25;2.88;;;23.20;78.40;;;;;;6269496;22;20094;-77
2023/09/01 14:25:59;;;;;;;3.58;2.20;;;23.30;79.10;;;;;;6270283;22;20007;-76
2023/09/01 14:28:45;;;;;;;4.45;2.65;;;23.30;79.00;;;;;;6251904;22;20098;-76
2023/09/01 14:31:30;;;;;;;3.55;2.05;;;23.30;79.20;;;;;;6273170;22;20011;-73
2023/09/01 14:34:16;;;;;;;3.55;2.15;;;23.30;79.10;;;;;;6271478;22;20055;-77